HTDA/DAR METAR and TAF weather

Enter ICAO airport designator
Station Type Date Time Source
HTDA METAR 2021/09/25 01:00 UTC NOAA

HTDA 250100Z 27003KT 9999 FEW012 22/21 Q1016 NOSIG


Station Type Date Time Source
HTDA Decoded METAR 2021/09/25 01:00 UTC NOAA

Dar Es Salaam Airport, Tanzania (HTDA) 06-52S 039-12E 55M
Sep 24, 2021 - 09:00 PM EDT / 2021.09.25 0100 UTC
Wind: from the W (270 degrees) at 3 MPH (3 KT):0
Visibility: greater than 7 mile(s):0
Sky conditions: mostly clear
Temperature: 71 F (22 C)
Dew Point: 69 F (21 C)
Relative Humidity: 94%
Pressure (altimeter): 30.00 in. Hg (1016 hPa)
ob: HTDA 250100Z 27003KT 9999 FEW012 22/21 Q1016 NOSIG
cycle: 1

Station Type Date Time Source
HTDA TAF 2021/09/25 00:54 UTC NOAA

TAF TAF HTDA 242300Z 2500/2606 19005KT 9999 FEW012 PROB30
TEMPO 2502/2505 1000 MIFG
BECMG 2507/2510 15010KT BKN023

Example: see airport list